ESUH weather

Myran Airport
Härnösand, Västernorrlands län, Sweden

Public forecast

Using degrees Celsius for public forecast. Weather courtesy of forecast.io.

METAR (pilot weather report)

Closest report is Sundsvall-Härnösand Airport, 16.1 nm (29.9 km) WSW. Retrieved 2019/08/21 03:20 UTC (39 minutes ago):

ESNN 210320Z AUTO 33004KT 0250 R16/0600N R34/P2000N BCFG NCD 08/08 Q1015

TAF (pilot weather forecast)

Forecast is more than 12 hours old.

Closest forecast is Sundsvall-Härnösand Airport, 16.1 nm (29.9 km) WSW. Retrieved 2016/05/29 09:33 UTC (3 years ago):

TAF TAF ESNN 290830Z 2909/3018 07006KT 9999 SCT045 BECMG 2913/2915 14010KT